createdAt,value
2019-04-27T00:01:14.338Z,14.90
2019-04-27T00:04:01.400Z,14.80
2019-04-27T00:06:31.002Z,14.80
2019-04-27T00:09:07.566Z,14.70
2019-04-27T00:11:42.180Z,14.70
2019-04-27T00:14:15.064Z,14.70
2019-04-27T00:16:57.188Z,14.70
2019-04-27T00:19:43.878Z,14.70
2019-04-27T00:22:31.332Z,14.70
2019-04-27T00:25:00.253Z,14.60
2019-04-27T00:27:29.258Z,14.50
2019-04-27T00:29:58.270Z,14.50
2019-04-27T00:32:27.301Z,14.50
2019-04-27T00:34:56.622Z,14.50
2019-04-27T00:37:53.497Z,14.50
2019-04-27T00:40:35.407Z,14.50
2019-04-27T00:43:04.481Z,14.40
2019-04-27T00:45:33.697Z,14.40
2019-04-27T00:48:03.499Z,14.40
2019-04-27T00:50:33.835Z,14.40
2019-04-27T00:53:03.493Z,14.40
2019-04-27T00:55:35.145Z,14.30
2019-04-27T00:58:23.092Z,14.30
2019-04-27T01:01:12.728Z,14.30
2019-04-27T01:03:45.864Z,14.30
2019-04-27T01:06:14.992Z,14.20
2019-04-27T01:08:45.004Z,14.20
2019-04-27T01:11:14.288Z,14.20
2019-04-27T01:13:43.613Z,14.20
2019-04-27T01:16:15.627Z,14.20
2019-04-27T01:18:43.708Z,14.20
2019-04-27T01:21:12.843Z,14.20
2019-04-27T01:23:42.210Z,14.20
2019-04-27T01:26:29.462Z,14.20
2019-04-27T01:29:04.619Z,14.20
2019-04-27T01:31:33.621Z,14.20
2019-04-27T01:34:02.880Z,14.20
2019-04-27T01:36:32.196Z,14.10
2019-04-27T01:39:01.122Z,14.10
2019-04-27T01:41:30.138Z,14.10
2019-04-27T01:43:59.217Z,14.10
2019-04-27T01:46:29.587Z,14.10
2019-04-27T01:48:59.143Z,14.00
2019-04-27T01:51:29.420Z,14.00
2019-04-27T01:53:59.357Z,14.00
2019-04-27T01:56:29.395Z,14.00
2019-04-27T01:58:59.517Z,14.00
2019-04-27T02:01:46.396Z,13.90
2019-04-27T02:04:24.624Z,13.90
2019-04-27T02:06:55.076Z,13.90
2019-04-27T02:09:24.177Z,13.90
2019-04-27T02:11:53.296Z,13.90
2019-04-27T02:14:22.391Z,13.90
2019-04-27T02:16:51.520Z,13.90
2019-04-27T02:19:20.631Z,13.90
2019-04-27T02:21:51.542Z,13.90
2019-04-27T02:24:20.542Z,13.90
2019-04-27T02:26:49.795Z,14.00
2019-04-27T02:29:41.088Z,14.00
2019-04-27T02:32:39.770Z,14.00
2019-04-27T02:35:12.909Z,14.00
2019-04-27T02:37:41.955Z,14.10
2019-04-27T02:40:49.442Z,14.10
2019-04-27T02:43:19.738Z,14.20
2019-04-27T02:45:50.303Z,14.20
2019-04-27T02:48:20.085Z,14.20
2019-04-27T02:50:50.746Z,14.20
2019-04-27T02:53:39.245Z,14.20
2019-04-27T02:56:10.210Z,14.20
2019-04-27T02:58:40.615Z,14.30
2019-04-27T03:01:10.050Z,14.20
2019-04-27T03:03:41.109Z,14.20
2019-04-27T03:06:10.440Z,14.20
2019-04-27T03:08:42.577Z,14.30
2019-04-27T03:11:10.652Z,14.30
2019-04-27T03:13:51.935Z,14.30
2019-04-27T03:16:35.661Z,14.20
2019-04-27T03:19:21.975Z,14.20
2019-04-27T03:22:09.804Z,14.20
2019-04-27T03:25:03.340Z,14.10
2019-04-27T03:27:33.877Z,14.10
2019-04-27T03:30:02.997Z,14.10
2019-04-27T03:32:32.135Z,14.00
2019-04-27T03:35:03.350Z,14.00
2019-04-27T03:37:32.455Z,14.00
2019-04-27T03:40:01.462Z,14.00
2019-04-27T03:42:31.386Z,14.00
2019-04-27T03:45:00.726Z,14.10
2019-04-27T03:47:30.695Z,14.10
2019-04-27T03:50:00.433Z,14.10
2019-04-27T03:52:35.537Z,14.00
2019-04-27T03:55:12.933Z,14.00
2019-04-27T03:58:00.226Z,14.00
2019-04-27T04:00:30.216Z,14.00
2019-04-27T04:03:00.529Z,14.00
2019-04-27T04:05:30.143Z,14.00
2019-04-27T04:08:00.493Z,14.00
2019-04-27T04:10:31.417Z,14.10
2019-04-27T04:13:22.840Z,14.10
2019-04-27T04:16:07.310Z,14.10
2019-04-27T04:18:53.540Z,14.20
2019-04-27T04:21:22.568Z,14.20
2019-04-27T04:23:51.571Z,14.20
2019-04-27T04:26:20.601Z,14.10
2019-04-27T04:28:50.086Z,14.10
2019-04-27T04:31:21.054Z,14.10
2019-04-27T04:33:50.336Z,14.00
2019-04-27T04:36:20.684Z,14.00
2019-04-27T04:38:50.592Z,14.00
2019-04-27T04:41:36.406Z,14.00
2019-04-27T04:44:15.960Z,14.00
2019-04-27T04:47:13.433Z,14.00
2019-04-27T04:49:42.752Z,14.10
2019-04-27T04:52:12.039Z,14.10
2019-04-27T04:54:41.672Z,14.10
2019-04-27T04:57:10.707Z,14.20
2019-04-27T04:59:39.585Z,14.30
2019-04-27T05:02:10.637Z,14.40
2019-04-27T05:04:39.427Z,14.40
2019-04-27T05:07:09.209Z,14.40
2019-04-27T05:09:39.584Z,14.50
2019-04-27T05:12:08.938Z,14.60
2019-04-27T05:14:38.903Z,14.60
2019-04-27T05:17:09.449Z,14.70
2019-04-27T05:19:38.943Z,14.80
2019-04-27T05:22:09.355Z,14.80
2019-04-27T05:24:39.321Z,14.80
2019-04-27T05:27:09.209Z,14.90
2019-04-27T05:29:38.942Z,15.00
2019-04-27T05:32:09.135Z,15.10
2019-04-27T05:34:39.439Z,15.20
2019-04-27T05:37:09.027Z,15.30
2019-04-27T05:39:38.877Z,15.40
2019-04-27T05:42:12.567Z,15.50
2019-04-27T05:45:22.854Z,15.50
2019-04-27T05:48:00.722Z,15.50
2019-04-27T05:50:38.102Z,15.30
2019-04-27T05:53:01.018Z,15.20
2019-04-27T05:55:30.036Z,15.20
2019-04-27T05:57:59.207Z,15.10
2019-04-27T06:00:29.342Z,15.00
2019-04-27T06:02:59.088Z,15.00
2019-04-27T06:05:29.225Z,14.90
2019-04-27T06:07:58.893Z,14.90
2019-04-27T06:10:29.630Z,14.80
2019-04-27T06:12:59.847Z,14.70
2019-04-27T06:15:30.215Z,14.60
2019-04-27T06:17:59.695Z,14.60
2019-04-27T06:20:28.761Z,14.60
2019-04-27T06:22:58.829Z,14.60
2019-04-27T06:25:30.513Z,14.60
2019-04-27T06:27:59.296Z,14.60
2019-04-27T06:30:29.203Z,14.60
2019-04-27T06:32:59.463Z,14.70
2019-04-27T06:35:28.874Z,14.80
2019-04-27T06:37:58.582Z,14.90
2019-04-27T06:40:29.060Z,15.00
2019-04-27T06:42:59.568Z,15.10
2019-04-27T06:45:28.784Z,15.10
2019-04-27T06:47:59.554Z,15.10
2019-04-27T06:50:29.593Z,15.10
2019-04-27T06:52:59.092Z,15.10
2019-04-27T06:55:29.106Z,15.20
2019-04-27T06:57:58.822Z,15.30
2019-04-27T07:00:28.933Z,15.40
2019-04-27T07:02:59.511Z,15.60
2019-04-27T07:05:29.064Z,15.70
2019-04-27T07:07:59.113Z,15.90
2019-04-27T07:10:28.715Z,16.00
2019-04-27T07:12:59.687Z,16.10
2019-04-27T07:15:28.846Z,16.00
2019-04-27T07:17:58.629Z,16.00
2019-04-27T07:20:30.310Z,15.90
2019-04-27T07:22:59.474Z,15.80
2019-04-27T07:25:29.090Z,15.80
2019-04-27T07:27:59.193Z,15.70
2019-04-27T07:30:32.520Z,15.60
2019-04-27T07:33:01.680Z,15.60
2019-04-27T07:35:30.769Z,15.50
2019-04-27T07:37:59.677Z,15.40
2019-04-27T07:40:30.347Z,15.40
2019-04-27T07:43:06.523Z,15.40
2019-04-27T07:45:39.427Z,15.40
2019-04-27T07:48:09.169Z,15.40
2019-04-27T07:50:39.029Z,15.40
2019-04-27T07:53:08.646Z,15.40
2019-04-27T07:55:39.274Z,15.40
2019-04-27T07:58:08.958Z,15.30
2019-04-27T08:00:39.482Z,15.30
2019-04-27T08:03:10.033Z,15.30
2019-04-27T08:05:39.488Z,15.30
2019-04-27T08:08:08.998Z,15.40
2019-04-27T08:10:39.226Z,15.40
2019-04-27T08:13:09.585Z,15.50
2019-04-27T08:15:39.699Z,15.50
2019-04-27T08:18:09.117Z,15.50
2019-04-27T08:20:39.065Z,15.40
2019-04-27T08:23:09.627Z,15.40
2019-04-27T08:25:39.250Z,15.40
2019-04-27T08:28:19.284Z,15.40
2019-04-27T08:31:08.911Z,15.50
2019-04-27T08:33:38.915Z,15.50
2019-04-27T08:36:08.975Z,15.60
2019-04-27T08:38:38.976Z,15.60
2019-04-27T08:41:08.966Z,15.70
2019-04-27T08:43:39.030Z,15.70
2019-04-27T08:46:08.785Z,15.70
2019-04-27T08:48:39.343Z,15.70
2019-04-27T08:51:09.547Z,15.80
2019-04-27T08:53:39.810Z,15.80
2019-04-27T08:56:09.365Z,15.90
2019-04-27T08:58:38.706Z,15.90
2019-04-27T09:01:10.205Z,15.90
2019-04-27T09:03:39.467Z,15.90
2019-04-27T09:06:10.607Z,16.00
2019-04-27T09:08:45.679Z,16.10
2019-04-27T09:11:32.911Z,16.20
2019-04-27T09:14:09.029Z,16.30
2019-04-27T09:16:57.225Z,16.40
2019-04-27T09:19:43.478Z,16.50
2019-04-27T09:22:16.289Z,16.50
2019-04-27T09:24:43.366Z,16.50
2019-04-27T09:27:12.240Z,16.50
2019-04-27T09:29:41.216Z,16.50
2019-04-27T09:32:10.335Z,16.50
2019-04-27T09:34:39.331Z,16.40
2019-04-27T09:37:08.597Z,16.30
2019-04-27T09:39:37.781Z,16.30
2019-04-27T09:42:07.047Z,16.20
2019-04-27T09:44:37.061Z,15.20
2019-04-27T09:47:06.354Z,14.70
2019-04-27T09:49:39.134Z,14.20
2019-04-27T09:52:23.621Z,13.70
2019-04-27T09:54:43.186Z,13.40
2019-04-27T09:57:12.243Z,13.20
2019-04-27T09:59:41.233Z,13.20
2019-04-27T10:02:10.247Z,13.20
2019-04-27T10:04:39.222Z,13.30
2019-04-27T10:07:08.247Z,13.70
2019-04-27T10:09:37.324Z,14.10
2019-04-27T10:12:07.523Z,14.40
2019-04-27T10:14:36.715Z,14.60
2019-04-27T10:17:05.699Z,14.90
2019-04-27T10:19:36.400Z,15.10
2019-04-27T10:22:05.861Z,15.50
2019-04-27T10:24:35.811Z,16.00
2019-04-27T10:27:07.779Z,16.10
2019-04-27T10:29:36.598Z,16.20
2019-04-27T10:32:06.322Z,16.10
2019-04-27T10:34:35.374Z,16.00
2019-04-27T10:37:06.076Z,16.00
2019-04-27T10:39:36.106Z,16.20
2019-04-27T10:42:06.799Z,16.30
2019-04-27T10:44:36.279Z,16.30
2019-04-27T10:47:06.008Z,16.40
2019-04-27T10:49:35.205Z,16.60
2019-04-27T10:52:05.889Z,16.70
2019-04-27T10:54:35.123Z,16.70
2019-04-27T10:57:05.950Z,16.70
2019-04-27T10:59:36.065Z,16.70
2019-04-27T11:02:05.445Z,16.60
2019-04-27T11:04:52.314Z,16.60
2019-04-27T11:07:23.501Z,16.20
2019-04-27T11:09:52.420Z,15.70
2019-04-27T11:12:21.479Z,15.20
2019-04-27T11:14:50.483Z,15.10
2019-04-27T11:17:19.497Z,15.10
2019-04-27T11:19:48.802Z,15.00
2019-04-27T11:22:17.798Z,14.90
2019-04-27T11:24:47.977Z,14.70
2019-04-27T11:27:17.414Z,14.70
2019-04-27T11:29:46.378Z,14.70
2019-04-27T11:32:15.886Z,14.80
2019-04-27T11:35:02.977Z,14.90
2019-04-27T11:37:35.649Z,15.00
2019-04-27T11:40:06.835Z,15.00
2019-04-27T11:42:35.973Z,15.00
2019-04-27T11:45:06.598Z,15.10
2019-04-27T11:47:36.542Z,15.30
2019-04-27T11:50:06.350Z,15.70
2019-04-27T11:52:36.851Z,16.20
2019-04-27T11:55:07.233Z,16.30
2019-04-27T11:57:37.630Z,17.60
2019-04-27T12:00:11.917Z,16.00
2019-04-27T12:02:46.536Z,15.70
2019-04-27T12:05:16.347Z,15.70
2019-04-27T12:07:47.542Z,15.90
2019-04-27T12:10:16.355Z,16.10
2019-04-27T12:12:46.320Z,16.40
2019-04-27T12:15:16.581Z,16.50
2019-04-27T12:17:46.174Z,16.60
2019-04-27T12:20:17.872Z,16.50
2019-04-27T12:22:46.521Z,16.30
2019-04-27T12:25:17.049Z,16.50
2019-04-27T12:28:11.152Z,16.70
2019-04-27T12:30:53.555Z,17.00
2019-04-27T12:33:23.082Z,17.20
2019-04-27T12:35:52.240Z,17.10
2019-04-27T12:38:21.262Z,17.10
2019-04-27T12:40:50.335Z,17.20
2019-04-27T12:43:19.412Z,17.30
2019-04-27T12:45:48.548Z,17.40
2019-04-27T12:48:17.574Z,17.70
2019-04-27T12:50:46.559Z,18.10
2019-04-27T12:53:23.153Z,18.50
2019-04-27T12:56:02.366Z,18.70
2019-04-27T12:58:39.988Z,18.80
2019-04-27T13:01:11.712Z,18.80
2019-04-27T13:03:41.047Z,18.80
2019-04-27T13:06:10.144Z,18.90
2019-04-27T13:08:39.264Z,18.90
2019-04-27T13:11:08.773Z,20.20
2019-04-27T13:13:37.770Z,18.50
2019-04-27T13:16:07.109Z,18.40
2019-04-27T13:18:36.290Z,18.50
2019-04-27T13:21:05.234Z,18.80
2019-04-27T13:23:34.284Z,19.00
2019-04-27T13:26:03.320Z,19.10
2019-04-27T13:28:32.959Z,19.00
2019-04-27T13:31:01.890Z,18.80
2019-04-27T13:33:30.841Z,18.80
2019-04-27T13:35:59.911Z,18.90
2019-04-27T13:38:28.881Z,19.00
2019-04-27T13:41:11.910Z,19.00
2019-04-27T13:43:41.001Z,19.10
2019-04-27T13:46:20.418Z,19.20
2019-04-27T13:49:07.293Z,18.90
2019-04-27T13:52:10.907Z,18.90
2019-04-27T13:54:39.981Z,19.00
2019-04-27T13:57:09.010Z,19.30
2019-04-27T13:59:38.182Z,19.30
2019-04-27T14:02:07.258Z,19.10
2019-04-27T14:04:36.203Z,18.80
2019-04-27T14:07:05.463Z,18.60
2019-04-27T14:09:34.586Z,18.40
2019-04-27T14:12:22.094Z,18.00
2019-04-27T14:14:51.193Z,16.90
2019-04-27T14:17:20.364Z,16.20
2019-04-27T14:19:49.769Z,15.80
2019-04-27T14:22:18.901Z,15.60
2019-04-27T14:24:48.704Z,15.60
2019-04-27T14:27:19.050Z,15.60
2019-04-27T14:29:48.949Z,15.80
2019-04-27T14:32:20.798Z,16.00
2019-04-27T14:34:50.410Z,16.30
2019-04-27T14:37:19.576Z,16.60
2019-04-27T14:39:48.748Z,17.10
2019-04-27T14:42:19.195Z,17.60
2019-04-27T14:44:49.052Z,17.80
2019-04-27T14:47:18.925Z,18.00
2019-04-27T14:49:49.048Z,18.10
2019-04-27T14:52:18.797Z,18.20
2019-04-27T14:54:50.700Z,18.10
2019-04-27T14:57:20.387Z,18.10
2019-04-27T14:59:50.047Z,18.10
2019-04-27T15:02:19.203Z,18.20
2019-04-27T15:04:48.419Z,18.10
2019-04-27T15:07:17.682Z,17.90
2019-04-27T15:09:49.800Z,17.80
2019-04-27T15:12:17.489Z,17.50
2019-04-27T15:14:47.216Z,17.10
2019-04-27T15:17:17.599Z,17.00
2019-04-27T15:19:54.026Z,16.90
2019-04-27T15:22:27.638Z,16.80
2019-04-27T15:25:09.200Z,16.60
2019-04-27T15:27:37.542Z,16.40
2019-04-27T15:30:11.553Z,16.20
2019-04-27T15:33:02.370Z,16.20
2019-04-27T15:35:40.664Z,16.30
2019-04-27T15:38:13.977Z,16.70
2019-04-27T15:41:02.375Z,17.20
2019-04-27T15:43:34.180Z,17.70
2019-04-27T15:46:09.777Z,18.00
2019-04-27T15:48:38.937Z,18.10
2019-04-27T15:51:14.629Z,18.10
2019-04-27T15:53:41.613Z,17.90
2019-04-27T15:56:09.554Z,17.70
2019-04-27T15:58:38.858Z,17.80
2019-04-27T16:01:11.593Z,17.70
2019-04-27T16:03:40.254Z,17.30
2019-04-27T16:06:11.928Z,17.20
2019-04-27T16:08:45.243Z,16.90
2019-04-27T16:11:16.377Z,16.80
2019-04-27T16:13:42.090Z,17.00
2019-04-27T16:16:11.206Z,16.90
2019-04-27T16:18:40.345Z,16.80
2019-04-27T16:21:11.072Z,16.60
2019-04-27T16:23:43.166Z,16.40
2019-04-27T16:26:15.040Z,16.00
2019-04-27T16:28:49.731Z,15.70
2019-04-27T16:31:14.376Z,15.60
2019-04-27T16:33:43.616Z,15.50
2019-04-27T16:36:12.786Z,15.30
2019-04-27T16:38:53.708Z,15.00
2019-04-27T16:41:22.959Z,14.80
2019-04-27T16:43:52.108Z,14.60
2019-04-27T16:46:21.570Z,14.60
2019-04-27T16:48:50.781Z,14.70
2019-04-27T16:51:19.945Z,14.60
2019-04-27T16:53:49.260Z,14.80
2019-04-27T16:56:20.623Z,14.90
2019-04-27T16:58:56.585Z,14.90
2019-04-27T17:01:30.298Z,15.10
2019-04-27T17:04:02.209Z,15.10
2019-04-27T17:06:31.116Z,15.10
2019-04-27T17:09:05.589Z,15.20
2019-04-27T17:11:31.066Z,15.20
2019-04-27T17:14:29.167Z,15.30
2019-04-27T17:17:21.545Z,15.50
2019-04-27T17:19:53.538Z,15.20
2019-04-27T17:22:22.589Z,15.00
2019-04-27T17:24:51.636Z,15.00
2019-04-27T17:27:29.318Z,15.00
2019-04-27T17:30:01.228Z,15.00
2019-04-27T17:32:44.322Z,15.10
2019-04-27T17:35:15.051Z,15.10
2019-04-27T17:37:44.430Z,15.00
2019-04-27T17:40:15.550Z,15.00
2019-04-27T17:42:44.633Z,14.90
2019-04-27T17:45:14.233Z,14.90
2019-04-27T17:47:43.141Z,15.00
2019-04-27T17:50:12.600Z,15.10
2019-04-27T17:52:41.687Z,15.20
2019-04-27T17:55:17.798Z,15.40
2019-04-27T17:57:44.674Z,15.50
2019-04-27T18:00:13.969Z,15.60
2019-04-27T18:02:43.002Z,15.60
2019-04-27T18:05:13.794Z,15.60
2019-04-27T18:07:44.412Z,15.60
2019-04-27T18:10:22.810Z,15.50
2019-04-27T18:12:48.143Z,15.50
2019-04-27T18:15:16.112Z,15.40
2019-04-27T18:17:51.425Z,15.30
2019-04-27T18:20:21.068Z,15.30
2019-04-27T18:22:54.159Z,15.20
2019-04-27T18:25:23.053Z,15.10
2019-04-27T18:28:20.292Z,15.10
2019-04-27T18:31:06.244Z,14.70
2019-04-27T18:33:37.169Z,14.00
2019-04-27T18:36:11.552Z,13.30
2019-04-27T18:38:37.385Z,13.00
2019-04-27T18:41:11.550Z,12.90
2019-04-27T18:43:46.508Z,12.90
2019-04-27T18:46:10.732Z,12.80
2019-04-27T18:49:01.987Z,12.80
2019-04-27T18:51:40.450Z,12.80
2019-04-27T18:54:09.388Z,12.90
2019-04-27T18:56:41.541Z,12.90
2019-04-27T18:59:09.441Z,13.00
2019-04-27T19:01:38.289Z,13.00
2019-04-27T19:04:08.698Z,13.00
2019-04-27T19:06:39.153Z,13.10
2019-04-27T19:09:08.550Z,13.20
2019-04-27T19:11:38.232Z,13.20
2019-04-27T19:14:08.287Z,13.20
2019-04-27T19:16:38.393Z,13.30
2019-04-27T19:19:08.664Z,13.30
2019-04-27T19:21:39.223Z,13.40
2019-04-27T19:24:08.985Z,13.40
2019-04-27T19:26:48.307Z,13.40
2019-04-27T19:29:21.273Z,13.40
2019-04-27T19:31:55.899Z,13.40
2019-04-27T19:34:24.783Z,13.40
2019-04-27T19:36:53.717Z,13.40
2019-04-27T19:39:22.835Z,13.40
2019-04-27T19:42:00.449Z,13.40
2019-04-27T19:44:22.431Z,13.40
2019-04-27T19:46:51.573Z,13.40
2019-04-27T19:49:20.561Z,13.40
2019-04-27T19:51:49.772Z,13.40
2019-04-27T19:54:18.779Z,13.40
2019-04-27T19:56:49.905Z,13.40
2019-04-27T19:59:23.448Z,13.40
2019-04-27T20:01:54.487Z,13.40
2019-04-27T20:04:27.413Z,13.40
2019-04-27T20:06:56.455Z,13.30
2019-04-27T20:09:41.122Z,13.30
2019-04-27T20:12:10.517Z,13.30
2019-04-27T20:14:57.918Z,13.30
2019-04-27T20:17:28.370Z,13.30
2019-04-27T20:19:57.579Z,13.30
2019-04-27T20:22:26.530Z,13.30
2019-04-27T20:24:55.654Z,13.30
2019-04-27T20:27:24.622Z,13.30
2019-04-27T20:29:53.651Z,13.30
2019-04-27T20:32:22.633Z,13.40
2019-04-27T20:34:51.616Z,13.40
2019-04-27T20:37:21.105Z,13.40
2019-04-27T20:39:51.432Z,13.40
2019-04-27T20:42:21.150Z,13.40
2019-04-27T20:44:51.587Z,13.40
2019-04-27T20:47:20.979Z,13.40
2019-04-27T20:49:50.028Z,13.40
2019-04-27T20:52:31.593Z,13.50
2019-04-27T20:55:01.503Z,13.50
2019-04-27T20:57:31.735Z,13.50
2019-04-27T21:00:02.045Z,13.50
2019-04-27T21:02:37.280Z,13.50
2019-04-27T21:05:28.486Z,13.50
2019-04-27T21:08:01.413Z,13.50
2019-04-27T21:10:30.787Z,13.50
2019-04-27T21:13:01.738Z,13.50
2019-04-27T21:15:31.493Z,13.50
2019-04-27T21:18:01.253Z,13.50
2019-04-27T21:20:41.030Z,13.50
2019-04-27T21:23:11.913Z,13.50
2019-04-27T21:25:42.034Z,13.50
2019-04-27T21:28:17.966Z,13.50
2019-04-27T21:30:42.096Z,13.60
2019-04-27T21:33:11.652Z,13.50
2019-04-27T21:35:40.693Z,13.60
2019-04-27T21:38:11.560Z,13.60
2019-04-27T21:40:40.957Z,13.50
2019-04-27T21:43:11.317Z,13.50
2019-04-27T21:45:42.032Z,13.50
2019-04-27T21:48:11.216Z,13.50
2019-04-27T21:50:41.341Z,13.50
2019-04-27T21:53:27.074Z,13.50
2019-04-27T21:56:01.582Z,13.50
2019-04-27T21:58:31.331Z,13.50
2019-04-27T22:01:22.350Z,13.60
2019-04-27T22:03:52.755Z,13.60
2019-04-27T22:06:22.152Z,13.60
2019-04-27T22:08:51.443Z,13.60
2019-04-27T22:11:21.876Z,13.60
2019-04-27T22:13:51.364Z,13.70
2019-04-27T22:16:21.334Z,13.70
2019-04-27T22:18:51.911Z,13.70
2019-04-27T22:21:21.790Z,13.60
2019-04-27T22:24:10.681Z,13.70
2019-04-27T22:26:41.498Z,13.70
2019-04-27T22:29:12.068Z,13.70
2019-04-27T22:31:41.607Z,13.70
2019-04-27T22:34:10.955Z,13.70
2019-04-27T22:36:39.942Z,13.70
2019-04-27T22:39:34.005Z,13.60
2019-04-27T22:42:23.105Z,13.70
2019-04-27T22:44:54.907Z,13.70
2019-04-27T22:47:26.993Z,13.70
2019-04-27T22:49:55.961Z,13.70
2019-04-27T22:52:24.917Z,13.70
2019-04-27T22:54:53.792Z,13.60
2019-04-27T22:57:31.550Z,13.70
2019-04-27T23:00:11.266Z,13.70
2019-04-27T23:02:52.926Z,13.70
2019-04-27T23:05:21.768Z,13.70
2019-04-27T23:07:51.715Z,13.60
2019-04-27T23:10:21.397Z,13.70
2019-04-27T23:12:51.032Z,13.70
2019-04-27T23:15:22.769Z,13.70
2019-04-27T23:17:55.718Z,13.70
2019-04-27T23:20:24.919Z,13.60
2019-04-27T23:22:54.297Z,13.60
2019-04-27T23:25:23.294Z,13.70
2019-04-27T23:27:59.524Z,13.70
2019-04-27T23:30:41.818Z,13.70
2019-04-27T23:33:11.213Z,13.70
2019-04-27T23:35:41.399Z,13.70
2019-04-27T23:38:17.601Z,13.70
2019-04-27T23:40:41.873Z,13.70
2019-04-27T23:43:12.155Z,13.70
2019-04-27T23:45:41.931Z,13.60
2019-04-27T23:48:12.402Z,13.70
2019-04-27T23:50:44.199Z,13.60
2019-04-27T23:53:17.172Z,13.60
2019-04-27T23:55:46.473Z,13.60
2019-04-27T23:58:15.780Z,13.60
